PWSweather.com
Personal Weather Stations
Station Observations
IPUMONTE2
MontelabbateIT 61025

MontelabbateIT 61025

Lat: 43.848, Lon: 12.7895

Elevation: 196

Station Type: LaCrosse WS3600

http://www.montelabbatemet.altervista.org/

Latest ConditionsUpdated 4:20:06 PM GMT+01:01 Wednesday, Jun 20, 2018
Currently Today's Max Today's Min Today's Average
Temperature 82.0°F27.8°C 83.1°F28.4°C 61.1°F16.2°C 73.0°F22.8°C
Dew Point 60.3°F15.7°C 64.4°F18.0°C 55.8°F13.2°C 60.0°F15.6°C
Winds 4.2 mph NNE6.8 kmh NNE 8.2 mph -13.2 kmh - - 3.4 mph 5.5 kmh
Wind Gusts 7.8 mph12.6 kmh 9.6 mph15.4 kmh - -
Humidity 48% 83% 48% 66%
Pressure 29.92 in1013.2 mb 29.97 in1014.9 mb 29.91 in1012.9 mb -
Hour Temp Dew Point Humidity Winds Wind Gusts Pressure Precip Precip Rate Daily Precip Total
04:20 PM 82.0°F27.8°C 60.3°F15.7°C 48% 4.2 mph NNE6.8 kmh NNE 7.8 mph12.6 kmh 29.92 in1013.2 mb 0.00 in0.0 mm 0.00 in0.0 mm 0.00 in0.0 mm
04:15 PM 82.0°F27.8°C 61.5°F16.4°C 50% 3.6 mph NE5.8 kmh NE 7.8 mph12.6 kmh 29.91 in1012.9 mb 0.00 in0.0 mm 0.00 in0.0 mm 0.00 in0.0 mm
04:10 PM 82.2°F27.9°C 61.1°F16.2°C 49% 2.6 mph NE4.2 kmh NE 7.3 mph11.7 kmh 29.92 in1013.2 mb 0.00 in0.0 mm 0.00 in0.0 mm 0.00 in0.0 mm
04:05 PM 82.2°F27.9°C 61.1°F16.2°C 49% 3.7 mph NE6.0 kmh NE 7.3 mph11.7 kmh 29.91 in1012.9 mb 0.00 in0.0 mm 0.00 in0.0 mm 0.00 in0.0 mm
04:00 PM 82.2°F27.9°C 61.1°F16.2°C 49% 5.3 mph NE8.5 kmh NE 7.3 mph11.7 kmh 29.92 in1013.2 mb 0.00 in0.0 mm 0.00 in0.0 mm 0.00 in0.0 mm
03:55 PM 81.8°F27.7°C 61.3°F16.3°C 50% 4.8 mph NE7.7 kmh NE 7.1 mph11.4 kmh 29.92 in1013.2 mb 0.00 in0.0 mm 0.00 in0.0 mm 0.00 in0.0 mm
03:50 PM 82.0°F27.8°C 62.0°F16.7°C 51% 5.9 mph NE9.5 kmh NE 7.1 mph11.4 kmh 29.92 in1013.2 mb 0.00 in0.0 mm 0.00 in0.0 mm 0.00 in0.0 mm
03:45 PM 82.0°F27.8°C 62.0°F16.7°C 51% 1.2 mph NNE1.9 kmh NNE 6.4 mph10.3 kmh 29.92 in1013.2 mb 0.00 in0.0 mm 0.00 in0.0 mm 0.00 in0.0 mm
03:40 PM 81.6°F27.6°C 61.2°F16.2°C 50% 5.3 mph NE8.5 kmh NE 6.9 mph11.1 kmh 29.93 in1013.5 mb 0.00 in0.0 mm 0.00 in0.0 mm 0.00 in0.0 mm
03:35 PM 81.5°F27.5°C 62.1°F16.7°C 52% 3.8 mph NE6.1 kmh NE 7.6 mph12.2 kmh 29.92 in1013.2 mb 0.00 in0.0 mm 0.00 in0.0 mm 0.00 in0.0 mm
03:30 PM 81.6°F27.6°C 61.7°F16.5°C 51% 6.7 mph NE10.8 kmh NE 7.6 mph12.2 kmh 29.92 in1013.2 mb 0.00 in0.0 mm 0.00 in0.0 mm 0.00 in0.0 mm
03:25 PM 81.6°F27.6°C 63.3°F17.4°C 54% 3.5 mph NNE5.6 kmh NNE 5.1 mph8.2 kmh 29.93 in1013.5 mb 0.00 in0.0 mm 0.00 in0.0 mm 0.00 in0.0 mm
03:20 PM 81.6°F27.6°C 62.2°F16.8°C 52% 4.7 mph NE7.6 kmh NE 7.1 mph11.4 kmh 29.92 in1013.2 mb 0.00 in0.0 mm 0.00 in0.0 mm 0.00 in0.0 mm
03:15 PM 82.0°F27.8°C 62.0°F16.7°C 52% 5.6 mph NNE9.0 kmh NNE 7.3 mph11.7 kmh 29.92 in1013.2 mb 0.00 in0.0 mm 0.00 in0.0 mm 0.00 in0.0 mm
03:10 PM 82.0°F27.8°C 60.9°F16.1°C 49% 5.8 mph NE9.3 kmh NE 8.5 mph13.7 kmh 29.92 in1013.2 mb 0.00 in0.0 mm 0.00 in0.0 mm 0.00 in0.0 mm
03:05 PM 82.2°F27.9°C 62.2°F16.8°C 51% 5.8 mph NNE9.3 kmh NNE 8.5 mph13.7 kmh 29.92 in1013.2 mb 0.00 in0.0 mm 0.00 in0.0 mm 0.00 in0.0 mm
03:00 PM 82.0°F27.8°C 63.6°F17.6°C 54% 4.4 mph N7.1 kmh N 5.3 mph8.5 kmh 29.92 in1013.2 mb 0.00 in0.0 mm 0.00 in0.0 mm 0.00 in0.0 mm
02:55 PM 81.8°F27.7°C 63.4°F17.4°C 54% 3.9 mph NE6.3 kmh NE 8.2 mph13.2 kmh 29.93 in1013.5 mb 0.00 in0.0 mm 0.00 in0.0 mm 0.00 in0.0 mm
02:50 PM 81.5°F27.5°C 63.1°F17.3°C 54% 5.7 mph NE9.2 kmh NE 9.3 mph15.0 kmh 29.93 in1013.5 mb 0.00 in0.0 mm 0.00 in0.0 mm 0.00 in0.0 mm
02:45 PM 82.0°F27.8°C 62.0°F16.7°C 51% 5.4 mph NNE8.7 kmh NNE 9.3 mph15.0 kmh 29.93 in1013.5 mb 0.00 in0.0 mm 0.00 in0.0 mm 0.00 in0.0 mm
02:40 PM 81.6°F27.6°C 61.7°F16.5°C 51% 3.3 mph N5.3 kmh N 5.8 mph9.3 kmh 29.93 in1013.5 mb 0.00 in0.0 mm 0.00 in0.0 mm 0.00 in0.0 mm
02:35 PM 82.0°F27.8°C 63.1°F17.3°C 53% 4.5 mph NE7.2 kmh NE 5.5 mph8.9 kmh 29.93 in1013.5 mb 0.00 in0.0 mm 0.00 in0.0 mm 0.00 in0.0 mm
02:30 PM 82.4°F28.0°C 63.9°F17.7°C 54% 2.6 mph NNW4.2 kmh NNW 6.9 mph11.1 kmh 29.93 in1013.5 mb 0.00 in0.0 mm 0.00 in0.0 mm 0.00 in0.0 mm
02:25 PM 81.8°F27.7°C 62.9°F17.2°C 53% 4.5 mph NE7.2 kmh NE 6.9 mph11.1 kmh 29.93 in1013.5 mb 0.00 in0.0 mm 0.00 in0.0 mm 0.00 in0.0 mm
02:20 PM 82.0°F27.8°C 63.1°F17.3°C 53% 3.3 mph NNE5.3 kmh NNE 6.9 mph11.1 kmh 29.93 in1013.5 mb 0.00 in0.0 mm 0.00 in0.0 mm 0.00 in0.0 mm
02:15 PM 81.6°F27.6°C 62.8°F17.1°C 53% 3.6 mph NE5.8 kmh NE 8.0 mph12.9 kmh 29.94 in1013.9 mb 0.00 in0.0 mm 0.00 in0.0 mm 0.00 in0.0 mm
02:10 PM 81.3°F27.4°C 63.5°F17.5°C 54% 5.7 mph NE9.2 kmh NE 8.0 mph12.9 kmh 29.94 in1013.9 mb 0.00 in0.0 mm 0.00 in0.0 mm 0.00 in0.0 mm
02:04 PM 81.3°F27.4°C 62.9°F17.2°C 54% 4.4 mph NE7.1 kmh NE 7.1 mph11.4 kmh 29.94 in1013.9 mb 0.00 in0.0 mm 0.00 in0.0 mm 0.00 in0.0 mm
01:59 PM 82.0°F27.8°C 63.1°F17.3°C 53% 4.2 mph NE6.8 kmh NE 8.9 mph14.3 kmh 29.94 in1013.9 mb 0.00 in0.0 mm 0.00 in0.0 mm 0.00 in0.0 mm
01:54 PM 81.6°F27.6°C 63.3°F17.4°C 54% 4.9 mph 7.9 kmh 8.9 mph14.3 kmh 29.94 in1013.9 mb 0.00 in0.0 mm 0.00 in0.0 mm 0.00 in0.0 mm
01:49 PM 81.6°F27.6°C 63.8°F17.7°C 55% 6.2 mph NE10.0 kmh NE 7.8 mph12.6 kmh 29.95 in1014.2 mb 0.00 in0.0 mm 0.00 in0.0 mm 0.00 in0.0 mm
01:44 PM 82.0°F27.8°C 64.1°F17.8°C 55% 3.1 mph NE5.0 kmh NE 8.2 mph13.2 kmh 29.95 in1014.2 mb 0.00 in0.0 mm 0.00 in0.0 mm 0.00 in0.0 mm
01:39 PM 81.5°F27.5°C 63.6°F17.6°C 55% 6.9 mph NNE11.1 kmh NNE 8.2 mph13.2 kmh 29.94 in1013.9 mb 0.00 in0.0 mm 0.00 in0.0 mm 0.00 in0.0 mm
01:34 PM 82.0°F27.8°C 64.1°F17.8°C 55% 3.6 mph NE5.8 kmh NE 7.1 mph11.4 kmh 29.94 in1013.9 mb 0.00 in0.0 mm 0.00 in0.0 mm 0.00 in0.0 mm
01:29 PM 81.3°F27.4°C 64.0°F17.8°C 56% 5.6 mph NE9.0 kmh NE 9.3 mph15.0 kmh 29.95 in1014.2 mb 0.00 in0.0 mm 0.00 in0.0 mm 0.00 in0.0 mm
01:24 PM 81.1°F27.3°C 63.3°F17.4°C 55% 8.2 mph NNE13.2 kmh NNE 9.3 mph15.0 kmh 29.95 in1014.2 mb 0.00 in0.0 mm 0.00 in0.0 mm 0.00 in0.0 mm
01:19 PM 81.8°F27.7°C 63.4°F17.4°C 54% 3.4 mph NNE5.5 kmh NNE 8.7 mph14.0 kmh 29.95 in1014.2 mb 0.00 in0.0 mm 0.00 in0.0 mm 0.00 in0.0 mm
01:14 PM 82.0°F27.8°C 64.1°F17.8°C 55% 4.3 mph NE6.9 kmh NE 8.7 mph14.0 kmh 29.95 in1014.2 mb 0.00 in0.0 mm 0.00 in0.0 mm 0.00 in0.0 mm
01:09 PM 82.4°F28.0°C 64.4°F18.0°C 55% 2.6 mph N4.2 kmh N 8.9 mph14.3 kmh 29.95 in1014.2 mb 0.00 in0.0 mm 0.00 in0.0 mm 0.00 in0.0 mm
01:04 PM 81.5°F27.5°C 63.6°F17.6°C 55% 5.8 mph NE9.3 kmh NE 8.9 mph14.3 kmh 29.95 in1014.2 mb 0.00 in0.0 mm 0.00 in0.0 mm 0.00 in0.0 mm
12:59 PM 82.4°F28.0°C 63.9°F17.7°C 54% 4.5 mph N7.2 kmh N 7.1 mph11.4 kmh 29.95 in1014.2 mb 0.00 in0.0 mm 0.00 in0.0 mm 0.00 in0.0 mm
12:54 PM 81.6°F27.6°C 63.8°F17.7°C 55% 3.4 mph 5.5 kmh 7.6 mph12.2 kmh 29.95 in1014.2 mb 0.00 in0.0 mm 0.00 in0.0 mm 0.00 in0.0 mm
12:49 PM 82.0°F27.8°C 63.6°F17.6°C 54% 4.8 mph NE7.7 kmh NE 7.6 mph12.2 kmh 29.95 in1014.2 mb 0.00 in0.0 mm 0.00 in0.0 mm 0.00 in0.0 mm
12:44 PM 81.6°F27.6°C 63.8°F17.7°C 55% 4.0 mph NE6.4 kmh NE 7.6 mph12.2 kmh 29.95 in1014.2 mb 0.00 in0.0 mm 0.00 in0.0 mm 0.00 in0.0 mm
12:39 PM 82.5°F28.1°C 63.6°F17.6°C 53% 2.7 mph NNW4.3 kmh NNW 6.9 mph11.1 kmh 29.96 in1014.6 mb 0.00 in0.0 mm 0.00 in0.0 mm 0.00 in0.0 mm
12:34 PM 82.2°F27.9°C 62.2°F16.8°C 51% 5.7 mph N9.2 kmh N 6.2 mph10.0 kmh 29.96 in1014.6 mb 0.00 in0.0 mm 0.00 in0.0 mm 0.00 in0.0 mm
12:29 PM 82.5°F28.1°C 64.1°F17.8°C 54% 1.3 mph NW2.1 kmh NW 8.0 mph12.9 kmh 29.95 in1014.2 mb 0.00 in0.0 mm 0.00 in0.0 mm 0.00 in0.0 mm
12:24 PM 81.3°F27.4°C 62.9°F17.2°C 54% 5.9 mph NE9.5 kmh NE 8.0 mph12.9 kmh 29.96 in1014.6 mb 0.00 in0.0 mm 0.00 in0.0 mm 0.00 in0.0 mm
12:19 PM 81.1°F27.3°C 63.3°F17.4°C 55% 3.4 mph NE5.5 kmh NE 7.1 mph11.4 kmh 29.96 in1014.6 mb 0.00 in0.0 mm 0.00 in0.0 mm 0.00 in0.0 mm
12:14 PM 81.6°F27.6°C 63.3°F17.4°C 54% 5.7 mph NNE9.2 kmh NNE 7.1 mph11.4 kmh 29.96 in1014.6 mb 0.00 in0.0 mm 0.00 in0.0 mm 0.00 in0.0 mm
12:09 PM 82.0°F27.8°C 64.1°F17.8°C 55% 3.1 mph ENE5.0 kmh ENE 8.2 mph13.2 kmh 29.96 in1014.6 mb 0.00 in0.0 mm 0.00 in0.0 mm 0.00 in0.0 mm
12:03 PM 81.5°F27.5°C 64.2°F17.9°C 56% 2.3 mph NE3.7 kmh NE 8.2 mph13.2 kmh 29.96 in1014.6 mb 0.00 in0.0 mm 0.00 in0.0 mm 0.00 in0.0 mm
11:58 AM 81.6°F27.6°C 63.3°F17.4°C 55% 4.4 mph N7.1 kmh N 6.4 mph10.3 kmh 29.96 in1014.6 mb 0.00 in0.0 mm 0.00 in0.0 mm 0.00 in0.0 mm
11:53 AM 81.3°F27.4°C 64.0°F17.8°C 56% 2.7 mph N4.3 kmh N 7.1 mph11.4 kmh 29.96 in1014.6 mb 0.00 in0.0 mm 0.00 in0.0 mm 0.00 in0.0 mm
11:48 AM 81.6°F27.6°C 63.8°F17.7°C 55% 4.5 mph NE7.2 kmh NE 7.1 mph11.4 kmh 29.96 in1014.6 mb 0.00 in0.0 mm 0.00 in0.0 mm 0.00 in0.0 mm
11:43 AM 81.6°F27.6°C 63.8°F17.7°C 55% 2.9 mph E4.7 kmh E 7.3 mph11.7 kmh 29.97 in1014.9 mb 0.00 in0.0 mm 0.00 in0.0 mm 0.00 in0.0 mm
11:38 AM 80.9°F27.2°C 63.1°F17.3°C 55% 4.1 mph NE6.6 kmh NE 7.3 mph11.7 kmh 29.96 in1014.6 mb 0.00 in0.0 mm 0.00 in0.0 mm 0.00 in0.0 mm
11:33 AM 82.0°F27.8°C 63.1°F17.3°C 53% 3.8 mph N6.1 kmh N 9.6 mph15.4 kmh 29.96 in1014.6 mb 0.00 in0.0 mm 0.00 in0.0 mm 0.00 in0.0 mm
11:28 AM 81.3°F27.4°C 62.9°F17.2°C 54% 2.8 mph N4.5 kmh N 9.6 mph15.4 kmh 29.96 in1014.6 mb 0.00 in0.0 mm 0.00 in0.0 mm 0.00 in0.0 mm
11:23 AM 81.1°F27.3°C 62.3°F16.8°C 53% 6.8 mph NNE10.9 kmh NNE 8.5 mph13.7 kmh 29.96 in1014.6 mb 0.00 in0.0 mm 0.00 in0.0 mm 0.00 in0.0 mm
11:18 AM 82.5°F28.1°C 61.4°F16.3°C 49% 3.5 mph 5.6 kmh 6.0 mph9.7 kmh 29.96 in1014.6 mb 0.00 in0.0 mm 0.00 in0.0 mm 0.00 in0.0 mm
11:13 AM 82.9°F28.3°C 61.8°F16.6°C 49% 2.1 mph NE3.4 kmh NE 7.1 mph11.4 kmh 29.96 in1014.6 mb 0.00 in0.0 mm 0.00 in0.0 mm 0.00 in0.0 mm
11:08 AM 82.0°F27.8°C 61.5°F16.4°C 50% 6.3 mph NE10.1 kmh NE 7.1 mph11.4 kmh 29.97 in1014.9 mb 0.00 in0.0 mm 0.00 in0.0 mm 0.00 in0.0 mm
11:03 AM 82.5°F28.1°C 61.4°F16.3°C 49% 4.8 mph NNE7.7 kmh NNE 6.0 mph9.7 kmh 29.97 in1014.9 mb 0.00 in0.0 mm 0.00 in0.0 mm 0.00 in0.0 mm
10:58 AM 82.5°F28.1°C 62.0°F16.7°C 50% 2.8 mph NNE4.5 kmh NNE 8.0 mph12.9 kmh 29.97 in1014.9 mb 0.00 in0.0 mm 0.00 in0.0 mm 0.00 in0.0 mm
10:53 AM 81.6°F27.6°C 61.2°F16.2°C 50% 4.0 mph NE6.4 kmh NE 8.9 mph14.3 kmh 29.96 in1014.6 mb 0.00 in0.0 mm 0.00 in0.0 mm 0.00 in0.0 mm
10:48 AM 81.6°F27.6°C 61.2°F16.2°C 50% 7.4 mph NE11.9 kmh NE 8.9 mph14.3 kmh 29.96 in1014.6 mb 0.00 in0.0 mm 0.00 in0.0 mm 0.00 in0.0 mm
10:43 AM 82.0°F27.8°C 62.0°F16.7°C 51% 3.7 mph NE6.0 kmh NE 4.0 mph6.4 kmh 29.97 in1014.9 mb 0.00 in0.0 mm 0.00 in0.0 mm 0.00 in0.0 mm
10:38 AM 82.5°F28.1°C 62.0°F16.7°C 50% 3.0 mph NNE4.8 kmh NNE 4.0 mph6.4 kmh 29.96 in1014.6 mb 0.00 in0.0 mm 0.00 in0.0 mm 0.00 in0.0 mm
10:33 AM 82.7°F28.2°C 61.6°F16.4°C 49% 2.7 mph WNW4.3 kmh WNW 2.9 mph4.7 kmh 29.96 in1014.6 mb 0.00 in0.0 mm 0.00 in0.0 mm 0.00 in0.0 mm
10:28 AM 82.7°F28.2°C 62.2°F16.8°C 50% 1.9 mph WNW3.1 kmh WNW 4.9 mph7.9 kmh 29.96 in1014.6 mb 0.00 in0.0 mm 0.00 in0.0 mm 0.00 in0.0 mm
10:23 AM 82.2°F27.9°C 61.7°F16.5°C 50% 2.1 mph ESE3.4 kmh ESE 4.9 mph7.9 kmh 29.96 in1014.6 mb 0.00 in0.0 mm 0.00 in0.0 mm 0.00 in0.0 mm
10:18 AM 83.1°F28.4°C 62.6°F17.0°C 50% 1.5 mph NNE2.4 kmh NNE 2.2 mph3.5 kmh 29.96 in1014.6 mb 0.00 in0.0 mm 0.00 in0.0 mm 0.00 in0.0 mm
10:13 AM 82.5°F28.1°C 62.0°F16.7°C 50% 1.8 mph N2.9 kmh N 2.2 mph3.5 kmh 29.96 in1014.6 mb 0.00 in0.0 mm 0.00 in0.0 mm 0.00 in0.0 mm
10:08 AM 83.1°F28.4°C 62.6°F17.0°C 50% 1.4 mph N2.3 kmh N 5.3 mph8.5 kmh 29.96 in1014.6 mb 0.00 in0.0 mm 0.00 in0.0 mm 0.00 in0.0 mm
10:03 AM 81.3°F27.4°C 61.4°F16.3°C 51% 3.1 mph N5.0 kmh N 5.3 mph8.5 kmh 29.96 in1014.6 mb 0.00 in0.0 mm 0.00 in0.0 mm 0.00 in0.0 mm
09:58 AM 81.6°F27.6°C 61.7°F16.5°C 51% 1.1 mph ENE1.8 kmh ENE 5.3 mph8.5 kmh 29.96 in1014.6 mb 0.00 in0.0 mm 0.00 in0.0 mm 0.00 in0.0 mm
09:53 AM 82.0°F27.8°C 62.0°F16.7°C 50% 2.0 mph SW3.2 kmh SW 2.2 mph3.5 kmh 29.96 in1014.6 mb 0.00 in0.0 mm 0.00 in0.0 mm 0.00 in0.0 mm
09:48 AM 82.0°F27.8°C 62.0°F16.7°C 51% 1.2 mph N1.9 kmh N 2.9 mph4.7 kmh 29.96 in1014.6 mb 0.00 in0.0 mm 0.00 in0.0 mm 0.00 in0.0 mm
09:43 AM 81.8°F27.7°C 61.9°F16.6°C 51% 1.6 mph NNW2.6 kmh NNW 2.9 mph4.7 kmh 29.96 in1014.6 mb 0.00 in0.0 mm 0.00 in0.0 mm 0.00 in0.0 mm
09:38 AM 81.6°F27.6°C 61.7°F16.5°C 51% 2.3 mph NW3.7 kmh NW 2.4 mph3.9 kmh 29.96 in1014.6 mb 0.00 in0.0 mm 0.00 in0.0 mm 0.00 in0.0 mm
09:33 AM 81.6°F27.6°C 62.2°F16.8°C 52% 1.9 mph NNE3.1 kmh NNE 2.4 mph3.9 kmh 29.96 in1014.6 mb 0.00 in0.0 mm 0.00 in0.0 mm 0.00 in0.0 mm
09:28 AM 80.9°F27.2°C 62.6°F17.0°C 54% 1.9 mph WNW3.1 kmh WNW 2.4 mph3.9 kmh 29.96 in1014.6 mb 0.00 in0.0 mm 0.00 in0.0 mm 0.00 in0.0 mm
09:23 AM 80.7°F27.1°C 62.5°F16.9°C 54% 2.2 mph N3.5 kmh N 2.4 mph3.9 kmh 29.96 in1014.6 mb 0.00 in0.0 mm 0.00 in0.0 mm 0.00 in0.0 mm
09:18 AM 80.7°F27.1°C 62.5°F16.9°C 54% 1.1 mph NW1.8 kmh NW 2.9 mph4.7 kmh 29.96 in1014.6 mb 0.00 in0.0 mm 0.00 in0.0 mm 0.00 in0.0 mm
09:13 AM 80.2°F26.8°C 63.0°F17.2°C 55% 1.7 mph NNW2.7 kmh NNW 2.9 mph4.7 kmh 29.96 in1014.6 mb 0.00 in0.0 mm 0.00 in0.0 mm 0.00 in0.0 mm
09:08 AM 80.2°F26.8°C 63.0°F17.2°C 56% 1.6 mph WNW2.6 kmh WNW 2.2 mph3.5 kmh 29.96 in1014.6 mb 0.00 in0.0 mm 0.00 in0.0 mm 0.00 in0.0 mm
09:03 AM 79.7°F26.5°C 62.5°F16.9°C 56% 1.4 mph SW2.3 kmh SW 2.2 mph3.5 kmh 29.96 in1014.6 mb 0.00 in0.0 mm 0.00 in0.0 mm 0.00 in0.0 mm
08:58 AM 79.5°F26.4°C 62.9°F17.2°C 57% 2.0 mph SSW3.2 kmh SSW 3.1 mph5.0 kmh 29.96 in1014.6 mb 0.00 in0.0 mm 0.00 in0.0 mm 0.00 in0.0 mm
08:53 AM 79.3°F26.3°C 62.7°F17.1°C 57% 1.6 mph W2.6 kmh W 3.1 mph5.0 kmh 29.96 in1014.6 mb 0.00 in0.0 mm 0.00 in0.0 mm 0.00 in0.0 mm
08:48 AM 79.3°F26.3°C 62.7°F17.1°C 57% 1.4 mph WSW2.3 kmh WSW 1.7 mph2.7 kmh 29.96 in1014.6 mb 0.00 in0.0 mm 0.00 in0.0 mm 0.00 in0.0 mm
08:43 AM 78.9°F26.1°C 62.9°F17.2°C 57% 1.5 mph N2.4 kmh N 2.2 mph3.5 kmh 29.96 in1014.6 mb 0.00 in0.0 mm 0.00 in0.0 mm 0.00 in0.0 mm
08:38 AM 78.4°F25.8°C 62.4°F16.9°C 58% 2.0 mph NNW3.2 kmh NNW 2.2 mph3.5 kmh 29.96 in1014.6 mb 0.00 in0.0 mm 0.00 in0.0 mm 0.00 in0.0 mm
08:33 AM 78.0°F25.6°C 63.1°F17.3°C 60% 0.7 mph S1.1 kmh S 2.2 mph3.5 kmh 29.96 in1014.6 mb 0.00 in0.0 mm 0.00 in0.0 mm 0.00 in0.0 mm
08:28 AM 77.5°F25.3°C 62.0°F16.7°C 59% 2.1 mph S3.4 kmh S 2.2 mph3.5 kmh 29.96 in1014.6 mb 0.00 in0.0 mm 0.00 in0.0 mm 0.00 in0.0 mm
08:23 AM 77.7°F25.4°C 62.7°F17.1°C 60% 0.4 mph SW0.6 kmh SW 1.5 mph2.4 kmh 29.97 in1014.9 mb 0.00 in0.0 mm 0.00 in0.0 mm 0.00 in0.0 mm
08:18 AM 77.1°F25.1°C 62.2°F16.8°C 60% 1.1 mph SSW1.8 kmh SSW 2.0 mph3.2 kmh 29.97 in1014.9 mb 0.00 in0.0 mm 0.00 in0.0 mm 0.00 in0.0 mm
08:13 AM 76.6°F24.8°C 61.7°F16.5°C 61% 1.6 mph SW2.6 kmh SW 2.0 mph3.2 kmh 29.96 in1014.6 mb 0.00 in0.0 mm 0.00 in0.0 mm 0.00 in0.0 mm
08:08 AM 75.7°F24.3°C 61.8°F16.6°C 62% 0.6 mph W1.0 kmh W 2.4 mph3.9 kmh 29.96 in1014.6 mb 0.00 in0.0 mm 0.00 in0.0 mm 0.00 in0.0 mm
08:03 AM 75.0°F23.9°C 61.1°F16.2°C 62% 2.3 mph S3.7 kmh S 3.1 mph5.0 kmh 29.96 in1014.6 mb 0.00 in0.0 mm 0.00 in0.0 mm 0.00 in0.0 mm
07:57 AM 74.6°F23.7°C 61.2°F16.2°C 63% 2.5 mph WSW4.0 kmh WSW 3.1 mph5.0 kmh 29.96 in1014.6 mb 0.00 in0.0 mm 0.00 in0.0 mm 0.00 in0.0 mm
07:52 AM 74.3°F23.5°C 60.8°F16.0°C 63% 2.4 mph SW3.9 kmh SW 3.1 mph5.0 kmh 29.96 in1014.6 mb 0.00 in0.0 mm 0.00 in0.0 mm 0.00 in0.0 mm
07:47 AM 73.7°F23.2°C 61.2°F16.2°C 65% 2.5 mph SSW4.0 kmh SSW 2.6 mph4.2 kmh 29.96 in1014.6 mb 0.00 in0.0 mm 0.00 in0.0 mm 0.00 in0.0 mm
07:42 AM 73.0°F22.8°C 61.8°F16.6°C 67% 1.7 mph SSW2.7 kmh SSW 3.1 mph5.0 kmh 29.96 in1014.6 mb 0.00 in0.0 mm 0.00 in0.0 mm 0.00 in0.0 mm
07:37 AM 72.5°F22.5°C 61.8°F16.6°C 69% 2.3 mph SSW3.7 kmh SSW 3.3 mph5.3 kmh 29.96 in1014.6 mb 0.00 in0.0 mm 0.00 in0.0 mm 0.00 in0.0 mm
07:32 AM 71.7°F22.1°C 61.0°F16.1°C 69% 2.5 mph SW4.0 kmh SW 4.0 mph6.4 kmh 29.96 in1014.6 mb 0.00 in0.0 mm 0.00 in0.0 mm 0.00 in0.0 mm
07:27 AM 71.2°F21.8°C 60.9°F16.1°C 70% 2.3 mph SW3.7 kmh SW 4.0 mph6.4 kmh 29.96 in1014.6 mb 0.00 in0.0 mm 0.00 in0.0 mm 0.00 in0.0 mm
07:22 AM 70.5°F21.4°C 60.2°F15.7°C 70% 3.3 mph WSW5.3 kmh WSW 4.0 mph6.4 kmh 29.96 in1014.6 mb 0.00 in0.0 mm 0.00 in0.0 mm 0.00 in0.0 mm
07:17 AM 69.9°F21.1°C 60.4°F15.8°C 72% 2.9 mph SSW4.7 kmh SSW 3.5 mph5.6 kmh 29.96 in1014.6 mb 0.00 in0.0 mm 0.00 in0.0 mm 0.00 in0.0 mm
07:12 AM 69.6°F20.9°C 60.1°F15.6°C 72% 2.6 mph SSW4.2 kmh SSW 4.0 mph6.4 kmh 29.96 in1014.6 mb 0.00 in0.0 mm 0.00 in0.0 mm 0.00 in0.0 mm
07:07 AM 69.0°F20.6°C 60.0°F15.6°C 73% 3.7 mph SW6.0 kmh SW 4.0 mph6.4 kmh 29.96 in1014.6 mb 0.00 in0.0 mm 0.00 in0.0 mm 0.00 in0.0 mm
07:02 AM 68.5°F20.3°C 59.9°F15.5°C 74% 2.6 mph SSW4.2 kmh SSW 3.8 mph6.1 kmh 29.96 in1014.6 mb 0.00 in0.0 mm 0.00 in0.0 mm 0.00 in0.0 mm
06:57 AM 68.0°F20.0°C 59.8°F15.4°C 75% 3.4 mph S5.5 kmh S 3.8 mph6.1 kmh 29.96 in1014.6 mb 0.00 in0.0 mm 0.00 in0.0 mm 0.00 in0.0 mm
06:52 AM 67.6°F19.8°C 59.8°F15.4°C 76% 2.6 mph SW4.2 kmh SW 3.8 mph6.1 kmh 29.96 in1014.6 mb 0.00 in0.0 mm 0.00 in0.0 mm 0.00 in0.0 mm
06:47 AM 66.7°F19.3°C 58.9°F14.9°C 76% 2.6 mph SSW4.2 kmh SSW 3.8 mph6.1 kmh 29.96 in1014.6 mb 0.00 in0.0 mm 0.00 in0.0 mm 0.00 in0.0 mm
06:42 AM 66.3°F19.1°C 58.9°F14.9°C 77% 3.5 mph WSW5.6 kmh WSW 4.0 mph6.4 kmh 29.96 in1014.6 mb 0.00 in0.0 mm 0.00 in0.0 mm 0.00 in0.0 mm
06:37 AM 66.0°F18.9°C 58.5°F14.7°C 77% 3.1 mph SW5.0 kmh SW 4.9 mph7.9 kmh 29.96 in1014.6 mb 0.00 in0.0 mm 0.00 in0.0 mm 0.00 in0.0 mm
06:32 AM 65.4°F18.6°C 58.0°F14.4°C 77% 4.1 mph SW6.6 kmh SW 4.9 mph7.9 kmh 29.96 in1014.6 mb 0.00 in0.0 mm 0.00 in0.0 mm 0.00 in0.0 mm
06:27 AM 65.4°F18.6°C 58.4°F14.7°C 78% 3.6 mph SW5.8 kmh SW 4.0 mph6.4 kmh 29.96 in1014.6 mb 0.00 in0.0 mm 0.00 in0.0 mm 0.00 in0.0 mm
06:22 AM 65.1°F18.4°C 58.4°F14.7°C 79% 3.0 mph S4.8 kmh S 3.3 mph5.3 kmh 29.96 in1014.6 mb 0.00 in0.0 mm 0.00 in0.0 mm 0.00 in0.0 mm
06:17 AM 64.7°F18.2°C 58.0°F14.4°C 79% 2.7 mph SW4.3 kmh SW 3.5 mph5.6 kmh 29.96 in1014.6 mb 0.00 in0.0 mm 0.00 in0.0 mm 0.00 in0.0 mm
06:12 AM 64.2°F17.9°C 57.9°F14.4°C 80% 3.5 mph SW5.6 kmh SW 3.8 mph6.1 kmh 29.96 in1014.6 mb 0.00 in0.0 mm 0.00 in0.0 mm 0.00 in0.0 mm
06:07 AM 63.8°F17.7°C 57.5°F14.2°C 80% 3.1 mph SW5.0 kmh SW 3.8 mph6.1 kmh 29.96 in1014.6 mb 0.00 in0.0 mm 0.00 in0.0 mm 0.00 in0.0 mm
06:02 AM 63.5°F17.5°C 57.5°F14.2°C 81% 2.5 mph SW4.0 kmh SW 4.2 mph6.8 kmh 29.96 in1014.6 mb 0.00 in0.0 mm 0.00 in0.0 mm 0.00 in0.0 mm
05:57 AM 63.1°F17.3°C 57.1°F13.9°C 81% 3.5 mph SW5.6 kmh SW 4.2 mph6.8 kmh 29.96 in1014.6 mb 0.00 in0.0 mm 0.00 in0.0 mm 0.00 in0.0 mm
05:52 AM 63.1°F17.3°C 57.5°F14.2°C 82% 3.1 mph SSW5.0 kmh SSW 3.5 mph5.6 kmh 29.96 in1014.6 mb 0.00 in0.0 mm 0.00 in0.0 mm 0.00 in0.0 mm
05:47 AM 62.6°F17.0°C 56.9°F13.8°C 82% 2.9 mph SW4.7 kmh SW 4.4 mph7.1 kmh 29.96 in1014.6 mb 0.00 in0.0 mm 0.00 in0.0 mm 0.00 in0.0 mm
05:42 AM 62.4°F16.9°C 56.8°F13.8°C 82% 3.3 mph SW5.3 kmh SW 4.4 mph7.1 kmh 29.96 in1014.6 mb 0.00 in0.0 mm 0.00 in0.0 mm 0.00 in0.0 mm
05:37 AM 62.2°F16.8°C 56.6°F13.7°C 82% 4.2 mph SSW6.8 kmh SSW 4.4 mph7.1 kmh 29.96 in1014.6 mb 0.00 in0.0 mm 0.00 in0.0 mm 0.00 in0.0 mm
05:32 AM 62.2°F16.8°C 56.6°F13.7°C 82% 4.0 mph SSW6.4 kmh SSW 4.0 mph6.4 kmh 29.96 in1014.6 mb 0.00 in0.0 mm 0.00 in0.0 mm 0.00 in0.0 mm
05:27 AM 62.0°F16.7°C 56.8°F13.8°C 83% 3.5 mph S5.6 kmh S 4.2 mph6.8 kmh 29.96 in1014.6 mb 0.00 in0.0 mm 0.00 in0.0 mm 0.00 in0.0 mm
05:22 AM 61.7°F16.5°C 56.4°F13.6°C 83% 3.7 mph SW6.0 kmh SW 4.4 mph7.1 kmh 29.95 in1014.2 mb 0.00 in0.0 mm 0.00 in0.0 mm 0.00 in0.0 mm
05:17 AM 61.5°F16.4°C 56.3°F13.5°C 83% 4.3 mph SW6.9 kmh SW 4.4 mph7.1 kmh 29.96 in1014.6 mb 0.00 in0.0 mm 0.00 in0.0 mm 0.00 in0.0 mm
05:12 AM 61.3°F16.3°C 56.1°F13.4°C 83% 4.1 mph SW6.6 kmh SW 5.5 mph8.9 kmh 29.96 in1014.6 mb 0.00 in0.0 mm 0.00 in0.0 mm 0.00 in0.0 mm
05:07 AM 61.1°F16.2°C 55.9°F13.3°C 83% 4.9 mph SW7.9 kmh SW 5.5 mph8.9 kmh 29.96 in1014.6 mb 0.00 in0.0 mm 0.00 in0.0 mm 0.00 in0.0 mm
05:02 AM 61.1°F16.2°C 55.9°F13.3°C 83% 3.5 mph SSW5.6 kmh SSW 5.1 mph8.2 kmh 29.96 in1014.6 mb 0.00 in0.0 mm 0.00 in0.0 mm 0.00 in0.0 mm
04:57 AM 61.1°F16.2°C 55.9°F13.3°C 83% 4.2 mph SSW6.8 kmh SSW 5.1 mph8.2 kmh 29.95 in1014.2 mb 0.00 in0.0 mm 0.00 in0.0 mm 0.00 in0.0 mm
04:52 AM 61.3°F16.3°C 56.1°F13.4°C 83% 3.8 mph SSW6.1 kmh SSW 5.1 mph8.2 kmh 29.95 in1014.2 mb 0.00 in0.0 mm 0.00 in0.0 mm 0.00 in0.0 mm
04:47 AM 61.3°F16.3°C 56.1°F13.4°C 83% 4.7 mph SW7.6 kmh SW 5.1 mph8.2 kmh 29.95 in1014.2 mb 0.00 in0.0 mm 0.00 in0.0 mm 0.00 in0.0 mm
04:42 AM 61.3°F16.3°C 56.1°F13.4°C 83% 4.0 mph SW6.4 kmh SW 4.2 mph6.8 kmh 29.95 in1014.2 mb 0.00 in0.0 mm 0.00 in0.0 mm 0.00 in0.0 mm
04:37 AM 61.3°F16.3°C 55.8°F13.2°C 83% 3.3 mph SSW5.3 kmh SSW 4.4 mph7.1 kmh 29.95 in1014.2 mb 0.00 in0.0 mm 0.00 in0.0 mm 0.00 in0.0 mm
04:32 AM 61.3°F16.3°C 55.8°F13.2°C 82% 3.8 mph SW6.1 kmh SW 4.4 mph7.1 kmh 29.96 in1014.6 mb 0.00 in0.0 mm 0.00 in0.0 mm 0.00 in0.0 mm
04:27 AM 61.7°F16.5°C 56.1°F13.4°C 82% 3.7 mph SW6.0 kmh SW 4.2 mph6.8 kmh 29.95 in1014.2 mb 0.00 in0.0 mm 0.00 in0.0 mm 0.00 in0.0 mm
04:22 AM 61.7°F16.5°C 56.1°F13.4°C 82% 3.3 mph SSW5.3 kmh SSW 4.6 mph7.4 kmh 29.95 in1014.2 mb 0.00 in0.0 mm 0.00 in0.0 mm 0.00 in0.0 mm
04:17 AM 61.7°F16.5°C 56.1°F13.4°C 82% 4.6 mph S7.4 kmh S 4.6 mph7.4 kmh 29.95 in1014.2 mb 0.00 in0.0 mm 0.00 in0.0 mm 0.00 in0.0 mm
04:12 AM 61.8°F16.6°C 56.3°F13.5°C 82% 3.9 mph SW6.3 kmh SW 4.4 mph7.1 kmh 29.95 in1014.2 mb 0.00 in0.0 mm 0.00 in0.0 mm 0.00 in0.0 mm
04:07 AM 61.8°F16.6°C 56.3°F13.5°C 82% 3.3 mph SSW5.3 kmh SSW 4.6 mph7.4 kmh 29.94 in1013.9 mb 0.00 in0.0 mm 0.00 in0.0 mm 0.00 in0.0 mm
04:02 AM 61.8°F16.6°C 56.3°F13.5°C 82% 4.1 mph SSW6.6 kmh SSW 4.6 mph7.4 kmh 29.95 in1014.2 mb 0.00 in0.0 mm 0.00 in0.0 mm 0.00 in0.0 mm
03:57 AM 61.8°F16.6°C 56.3°F13.5°C 82% 3.9 mph SSW6.3 kmh SSW 4.4 mph7.1 kmh 29.95 in1014.2 mb 0.00 in0.0 mm 0.00 in0.0 mm 0.00 in0.0 mm
03:52 AM 61.8°F16.6°C 55.9°F13.3°C 81% 3.9 mph SW6.3 kmh SW 4.0 mph6.4 kmh 29.95 in1014.2 mb 0.00 in0.0 mm 0.00 in0.0 mm 0.00 in0.0 mm
03:47 AM 62.2°F16.8°C 56.3°F13.5°C 81% 3.6 mph SW5.8 kmh SW 4.0 mph6.4 kmh 29.95 in1014.2 mb 0.00 in0.0 mm 0.00 in0.0 mm 0.00 in0.0 mm
03:42 AM 62.2°F16.8°C 56.3°F13.5°C 81% 4.0 mph SSW6.4 kmh SSW 4.0 mph6.4 kmh 29.95 in1014.2 mb 0.00 in0.0 mm 0.00 in0.0 mm 0.00 in0.0 mm
03:37 AM 62.2°F16.8°C 56.3°F13.5°C 81% 3.3 mph SSW5.3 kmh SSW 4.6 mph7.4 kmh 29.95 in1014.2 mb 0.00 in0.0 mm 0.00 in0.0 mm 0.00 in0.0 mm
03:32 AM 62.2°F16.8°C 56.3°F13.5°C 81% 4.3 mph SW6.9 kmh SW 4.6 mph7.4 kmh 29.95 in1014.2 mb 0.00 in0.0 mm 0.00 in0.0 mm 0.00 in0.0 mm
03:27 AM 62.2°F16.8°C 56.3°F13.5°C 81% 3.5 mph SSW5.6 kmh SSW 4.9 mph7.9 kmh 29.95 in1014.2 mb 0.00 in0.0 mm 0.00 in0.0 mm 0.00 in0.0 mm
03:22 AM 62.0°F16.7°C 56.1°F13.4°C 81% 3.5 mph S5.6 kmh S 5.1 mph8.2 kmh 29.95 in1014.2 mb 0.00 in0.0 mm 0.00 in0.0 mm 0.00 in0.0 mm
03:17 AM 62.2°F16.8°C 56.3°F13.5°C 81% 4.0 mph SSW6.4 kmh SSW 5.1 mph8.2 kmh 29.95 in1014.2 mb 0.00 in0.0 mm 0.00 in0.0 mm 0.00 in0.0 mm
03:11 AM 62.2°F16.8°C 56.6°F13.7°C 82% 3.9 mph SW6.3 kmh SW 5.1 mph8.2 kmh 29.95 in1014.2 mb 0.00 in0.0 mm 0.00 in0.0 mm 0.00 in0.0 mm
03:06 AM 62.2°F16.8°C 56.3°F13.5°C 81% 3.9 mph SSW6.3 kmh SSW 4.9 mph7.9 kmh 29.94 in1013.9 mb 0.00 in0.0 mm 0.00 in0.0 mm 0.00 in0.0 mm
03:02 AM 62.2°F16.8°C 56.3°F13.5°C 81% 4.2 mph SSW6.8 kmh SSW 4.9 mph7.9 kmh 29.94 in1013.9 mb 0.00 in0.0 mm 0.00 in0.0 mm 0.00 in0.0 mm
02:56 AM 62.4°F16.9°C 56.1°F13.4°C 81% 3.3 mph SW5.3 kmh SW 3.3 mph5.3 kmh 29.94 in1013.9 mb 0.00 in0.0 mm 0.00 in0.0 mm 0.00 in0.0 mm
02:51 AM 62.6°F17.0°C 56.3°F13.5°C 80% 2.7 mph SW4.3 kmh SW 3.1 mph5.0 kmh 29.94 in1013.9 mb 0.00 in0.0 mm 0.00 in0.0 mm 0.00 in0.0 mm
02:47 AM 62.7°F17.1°C 56.4°F13.6°C 80% 2.4 mph SW3.9 kmh SW 4.0 mph6.4 kmh 29.94 in1013.9 mb 0.00 in0.0 mm 0.00 in0.0 mm 0.00 in0.0 mm
02:41 AM 62.7°F17.1°C 56.4°F13.6°C 80% 3.0 mph SSW4.8 kmh SSW 4.0 mph6.4 kmh 29.94 in1013.9 mb 0.00 in0.0 mm 0.00 in0.0 mm 0.00 in0.0 mm
02:36 AM 62.9°F17.2°C 56.6°F13.7°C 80% 3.5 mph SW5.6 kmh SW 4.0 mph6.4 kmh 29.94 in1013.9 mb 0.00 in0.0 mm 0.00 in0.0 mm 0.00 in0.0 mm
02:31 AM 63.1°F17.3°C 56.8°F13.8°C 80% 3.1 mph SW5.0 kmh SW 3.5 mph5.6 kmh 29.94 in1013.9 mb 0.00 in0.0 mm 0.00 in0.0 mm 0.00 in0.0 mm
02:26 AM 63.1°F17.3°C 56.8°F13.8°C 80% 3.0 mph S4.8 kmh S 3.5 mph5.6 kmh 29.94 in1013.9 mb 0.00 in0.0 mm 0.00 in0.0 mm 0.00 in0.0 mm
02:21 AM 63.1°F17.3°C 56.8°F13.8°C 80% 2.7 mph SW4.3 kmh SW 3.1 mph5.0 kmh 29.94 in1013.9 mb 0.00 in0.0 mm 0.00 in0.0 mm 0.00 in0.0 mm
02:16 AM 63.3°F17.4°C 56.6°F13.7°C 79% 2.5 mph WSW4.0 kmh WSW 3.1 mph5.0 kmh 29.94 in1013.9 mb 0.00 in0.0 mm 0.00 in0.0 mm 0.00 in0.0 mm
02:11 AM 63.3°F17.4°C 56.6°F13.7°C 79% 3.1 mph WSW5.0 kmh WSW 3.3 mph5.3 kmh 29.94 in1013.9 mb 0.00 in0.0 mm 0.00 in0.0 mm 0.00 in0.0 mm
02:06 AM 63.5°F17.5°C 56.4°F13.6°C 78% 2.8 mph SW4.5 kmh SW 3.3 mph5.3 kmh 29.95 in1014.2 mb 0.00 in0.0 mm 0.00 in0.0 mm 0.00 in0.0 mm
02:01 AM 63.6°F17.6°C 56.6°F13.7°C 78% 3.1 mph SW5.0 kmh SW 3.3 mph5.3 kmh 29.94 in1013.9 mb 0.00 in0.0 mm 0.00 in0.0 mm 0.00 in0.0 mm
01:56 AM 63.6°F17.6°C 56.6°F13.7°C 78% 2.4 mph SSW3.9 kmh SSW 3.3 mph5.3 kmh 29.94 in1013.9 mb 0.00 in0.0 mm 0.00 in0.0 mm 0.00 in0.0 mm
01:51 AM 63.6°F17.6°C 56.6°F13.7°C 78% 2.6 mph SW4.2 kmh SW 3.8 mph6.1 kmh 29.94 in1013.9 mb 0.00 in0.0 mm 0.00 in0.0 mm 0.00 in0.0 mm
01:46 AM 63.6°F17.6°C 56.6°F13.7°C 78% 3.7 mph SW6.0 kmh SW 3.8 mph6.1 kmh 29.94 in1013.9 mb 0.00 in0.0 mm 0.00 in0.0 mm 0.00 in0.0 mm
01:40 AM 63.6°F17.6°C 56.6°F13.7°C 78% 2.8 mph SSW4.5 kmh SSW 4.2 mph6.8 kmh 29.94 in1013.9 mb 0.00 in0.0 mm 0.00 in0.0 mm 0.00 in0.0 mm
01:36 AM 63.8°F17.7°C 56.8°F13.8°C 78% 3.4 mph S5.5 kmh S 4.4 mph7.1 kmh 29.94 in1013.9 mb 0.00 in0.0 mm 0.00 in0.0 mm 0.00 in0.0 mm
01:31 AM 63.8°F17.7°C 56.8°F13.8°C 78% 3.9 mph SSW6.3 kmh SSW 4.4 mph7.1 kmh 29.95 in1014.2 mb 0.00 in0.0 mm 0.00 in0.0 mm 0.00 in0.0 mm
01:26 AM 63.8°F17.7°C 56.8°F13.8°C 78% 3.7 mph WSW6.0 kmh WSW 4.4 mph7.1 kmh 29.94 in1013.9 mb 0.00 in0.0 mm 0.00 in0.0 mm 0.00 in0.0 mm
01:21 AM 64.0°F17.8°C 57.0°F13.9°C 78% 2.5 mph SSW4.0 kmh SSW 3.8 mph6.1 kmh 29.95 in1014.2 mb 0.00 in0.0 mm 0.00 in0.0 mm 0.00 in0.0 mm
01:16 AM 64.0°F17.8°C 57.0°F13.9°C 78% 3.3 mph S5.3 kmh S 4.0 mph6.4 kmh 29.95 in1014.2 mb 0.00 in0.0 mm 0.00 in0.0 mm 0.00 in0.0 mm
01:11 AM 64.2°F17.9°C 56.8°F13.8°C 77% 3.5 mph SSW5.6 kmh SSW 4.0 mph6.4 kmh 29.94 in1013.9 mb 0.00 in0.0 mm 0.00 in0.0 mm 0.00 in0.0 mm
01:06 AM 64.4°F18.0°C 57.0°F13.9°C 77% 3.1 mph SSW5.0 kmh SSW 3.1 mph5.0 kmh 29.95 in1014.2 mb 0.00 in0.0 mm 0.00 in0.0 mm 0.00 in0.0 mm
01:01 AM 64.4°F18.0°C 57.0°F13.9°C 77% 2.9 mph SW4.7 kmh SW 3.8 mph6.1 kmh 29.95 in1014.2 mb 0.00 in0.0 mm 0.00 in0.0 mm 0.00 in0.0 mm
12:56 AM 64.2°F17.9°C 56.8°F13.8°C 77% 3.4 mph SW5.5 kmh SW 4.0 mph6.4 kmh 29.95 in1014.2 mb 0.00 in0.0 mm 0.00 in0.0 mm 0.00 in0.0 mm
12:51 AM 64.4°F18.0°C 57.0°F13.9°C 77% 4.0 mph WSW6.4 kmh WSW 4.0 mph6.4 kmh 29.95 in1014.2 mb 0.00 in0.0 mm 0.00 in0.0 mm 0.00 in0.0 mm
12:46 AM 64.7°F18.2°C 57.0°F13.9°C 76% 3.8 mph SW6.1 kmh SW 4.0 mph6.4 kmh 29.95 in1014.2 mb 0.00 in0.0 mm 0.00 in0.0 mm 0.00 in0.0 mm
12:41 AM 65.3°F18.5°C 57.1°F13.9°C 76% 2.9 mph WSW4.7 kmh WSW 2.9 mph4.7 kmh 29.95 in1014.2 mb 0.00 in0.0 mm 0.00 in0.0 mm 0.00 in0.0 mm
12:36 AM 65.3°F18.5°C 57.1°F13.9°C 75% 2.3 mph SW3.7 kmh SW 3.5 mph5.6 kmh 29.95 in1014.2 mb 0.00 in0.0 mm 0.00 in0.0 mm 0.00 in0.0 mm
12:31 AM 65.4°F18.6°C 57.6°F14.2°C 75% 3.2 mph SW5.1 kmh SW 3.5 mph5.6 kmh 29.95 in1014.2 mb 0.00 in0.0 mm 0.00 in0.0 mm 0.00 in0.0 mm
12:26 AM 65.4°F18.6°C 57.6°F14.2°C 75% 1.7 mph SSW2.7 kmh SSW 3.8 mph6.1 kmh 29.95 in1014.2 mb 0.00 in0.0 mm 0.00 in0.0 mm 0.00 in0.0 mm
12:21 AM 65.4°F18.6°C 57.6°F14.2°C 75% 2.9 mph SW4.7 kmh SW 3.8 mph6.1 kmh 29.95 in1014.2 mb 0.00 in0.0 mm 0.00 in0.0 mm 0.00 in0.0 mm
12:16 AM 65.4°F18.6°C 57.6°F14.2°C 75% 3.5 mph SW5.6 kmh SW 3.8 mph6.1 kmh 29.95 in1014.2 mb 0.00 in0.0 mm 0.00 in0.0 mm 0.00 in0.0 mm
12:11 AM 65.4°F18.6°C 57.6°F14.2°C 75% 3.5 mph SSW5.6 kmh SSW 3.5 mph5.6 kmh 29.95 in1014.2 mb 0.00 in0.0 mm 0.00 in0.0 mm 0.00 in0.0 mm
12:06 AM 65.4°F18.6°C 57.6°F14.2°C 75% 3.3 mph SSW5.3 kmh SSW 3.5 mph5.6 kmh 29.95 in1014.2 mb 0.00 in0.0 mm 0.00 in0.0 mm 0.00 in0.0 mm
12:01 AM 65.3°F18.5°C 57.5°F14.2°C 76% 3.2 mph SSW5.1 kmh SSW 3.5 mph5.6 kmh 29.95 in1014.2 mb 0.00 in0.0 mm 0.00 in0.0 mm 0.00 in0.0 mm